createdAt,value
2023-04-17T00:00:59.999Z,13.77
2023-04-17T00:03:27.977Z,13.82
2023-04-17T00:05:56.816Z,13.66
2023-04-17T00:08:26.209Z,13.53
2023-04-17T00:11:06.502Z,13.63
2023-04-17T00:13:35.578Z,13.54
2023-04-17T00:16:03.846Z,13.53
2023-04-17T00:18:31.789Z,13.25
2023-04-17T00:20:59.650Z,13.47
2023-04-17T00:23:29.714Z,13.58
2023-04-17T00:25:57.638Z,13.52
2023-04-17T00:28:25.700Z,13.75
2023-04-17T00:30:53.647Z,13.75
2023-04-17T00:33:21.569Z,13.80
2023-04-17T00:35:49.498Z,13.95
2023-04-17T00:38:17.355Z,13.61
2023-04-17T00:40:46.802Z,13.80
2023-04-17T00:43:14.841Z,13.49
2023-04-17T00:45:43.162Z,13.60
2023-04-17T00:48:13.235Z,13.65
2023-04-17T00:50:41.773Z,13.61
2023-04-17T00:53:09.965Z,13.63
2023-04-17T00:55:40.646Z,13.58
2023-04-17T00:58:10.497Z,13.47
2023-04-17T01:00:38.803Z,13.21
2023-04-17T01:03:07.081Z,13.29
2023-04-17T01:05:38.325Z,13.12
2023-04-17T01:08:06.627Z,13.35
2023-04-17T01:10:34.629Z,13.44
2023-04-17T01:13:03.424Z,13.40
2023-04-17T01:15:33.894Z,13.13
2023-04-17T01:18:02.087Z,13.35
2023-04-17T01:20:31.094Z,13.44
2023-04-17T01:22:59.437Z,13.25
2023-04-17T01:25:29.765Z,13.42
2023-04-17T01:27:58.000Z,13.56
2023-04-17T01:30:27.177Z,13.27
2023-04-17T01:32:58.612Z,13.23
2023-04-17T01:35:26.544Z,13.29
2023-04-17T01:37:56.831Z,13.53
2023-04-17T01:40:24.786Z,13.38
2023-04-17T01:42:54.243Z,13.34
2023-04-17T01:45:22.399Z,13.01
2023-04-17T01:47:51.573Z,13.25
2023-04-17T01:50:19.660Z,13.02
2023-04-17T01:52:47.613Z,13.21
2023-04-17T01:55:15.483Z,13.33
2023-04-17T01:57:44.002Z,13.25
2023-04-17T02:00:14.772Z,13.36
2023-04-17T02:02:44.196Z,12.91
2023-04-17T02:05:12.221Z,13.24
2023-04-17T02:07:40.116Z,13.19
2023-04-17T02:10:09.232Z,13.31
2023-04-17T02:12:37.892Z,13.18
2023-04-17T02:15:06.799Z,13.10
2023-04-17T02:17:36.119Z,13.04
2023-04-17T02:20:07.024Z,13.04
2023-04-17T02:22:34.922Z,13.06
2023-04-17T02:25:02.956Z,13.06
2023-04-17T02:27:31.165Z,13.10
2023-04-17T02:29:59.187Z,13.13
2023-04-17T02:32:28.506Z,12.91
2023-04-17T02:34:57.775Z,12.66
2023-04-17T02:37:25.703Z,12.57
2023-04-17T02:39:55.514Z,12.99
2023-04-17T02:42:23.448Z,12.64
2023-04-17T02:44:51.349Z,12.61
2023-04-17T02:47:19.540Z,12.99
2023-04-17T02:49:47.483Z,13.15
2023-04-17T02:52:16.722Z,12.74
2023-04-17T02:54:44.580Z,12.85
2023-04-17T02:57:13.417Z,12.57
2023-04-17T02:59:41.339Z,12.51
2023-04-17T03:02:09.422Z,12.71
2023-04-17T03:04:38.930Z,12.77
2023-04-17T03:07:09.220Z,12.49
2023-04-17T03:09:38.859Z,12.40
2023-04-17T03:12:07.165Z,12.71
2023-04-17T03:14:35.043Z,12.68
2023-04-17T03:17:02.945Z,12.94
2023-04-17T03:19:30.931Z,12.84
2023-04-17T03:21:58.841Z,13.05
2023-04-17T03:24:26.737Z,13.03
2023-04-17T03:26:56.135Z,12.76
2023-04-17T03:29:24.345Z,12.78
2023-04-17T03:31:52.556Z,12.89
2023-04-17T03:34:21.651Z,12.85
2023-04-17T03:36:50.798Z,12.66
2023-04-17T03:39:18.766Z,12.79
2023-04-17T03:41:47.077Z,12.73
2023-04-17T03:44:17.325Z,12.67
2023-04-17T03:46:46.061Z,12.67
2023-04-17T03:49:14.316Z,12.73
2023-04-17T03:51:43.493Z,12.77
2023-04-17T03:54:17.069Z,12.74
2023-04-17T03:56:47.135Z,12.48
2023-04-17T03:59:16.516Z,12.35
2023-04-17T04:01:46.872Z,12.43
2023-04-17T04:04:19.693Z,12.57
2023-04-17T04:06:49.433Z,12.58
2023-04-17T04:09:20.445Z,12.36
2023-04-17T04:11:48.272Z,12.63
2023-04-17T04:14:17.736Z,12.71
2023-04-17T04:16:48.436Z,12.65
2023-04-17T04:19:16.300Z,12.62
2023-04-17T04:21:45.383Z,12.60
2023-04-17T04:24:15.172Z,12.50
2023-04-17T04:26:44.028Z,12.27
2023-04-17T04:29:13.862Z,12.46
2023-04-17T04:31:57.464Z,12.56
2023-04-17T04:34:30.914Z,12.34
2023-04-17T04:36:58.771Z,12.27
2023-04-17T04:39:47.545Z,12.31
2023-04-17T04:42:22.138Z,12.48
2023-04-17T04:44:58.082Z,12.46
2023-04-17T04:47:30.911Z,12.39
2023-04-17T04:49:58.911Z,12.08
2023-04-17T04:52:27.993Z,12.15
2023-04-17T04:54:59.691Z,12.77
2023-04-17T04:57:27.687Z,12.27
2023-04-17T04:59:59.676Z,12.22
2023-04-17T05:02:35.108Z,12.47
2023-04-17T05:05:04.424Z,12.37
2023-04-17T05:07:34.841Z,12.20
2023-04-17T05:10:04.708Z,12.31
2023-04-17T05:12:36.212Z,12.21
2023-04-17T05:15:08.064Z,12.49
2023-04-17T05:17:37.810Z,12.39
2023-04-17T05:20:09.215Z,12.08
2023-04-17T05:22:45.323Z,12.30
2023-04-17T05:25:16.275Z,12.25
2023-04-17T05:27:44.352Z,12.22
2023-04-17T05:30:14.697Z,12.14
2023-04-17T05:32:46.665Z,12.47
2023-04-17T05:35:35.185Z,12.52
2023-04-17T05:38:04.013Z,12.43
2023-04-17T05:40:34.036Z,12.34
2023-04-17T05:43:07.700Z,12.37
2023-04-17T05:45:36.265Z,12.63
2023-04-17T05:48:05.662Z,12.62
2023-04-17T05:50:33.658Z,12.73
2023-04-17T05:53:02.150Z,12.89
2023-04-17T05:55:34.477Z,12.79
2023-04-17T05:58:16.867Z,12.56
2023-04-17T06:00:52.859Z,12.42
2023-04-17T06:03:23.097Z,12.25
2023-04-17T06:05:58.390Z,12.38
2023-04-17T06:08:28.095Z,12.51
2023-04-17T06:10:56.528Z,12.42
2023-04-17T06:13:24.441Z,12.67
2023-04-17T06:15:52.878Z,12.61
2023-04-17T06:18:22.168Z,12.78
2023-04-17T06:20:50.577Z,12.20
2023-04-17T06:23:18.482Z,12.59
2023-04-17T06:25:46.367Z,12.93
2023-04-17T06:28:14.335Z,12.43
2023-04-17T06:30:42.403Z,12.79
2023-04-17T06:33:10.498Z,13.01
2023-04-17T06:35:40.791Z,13.32
2023-04-17T06:38:28.965Z,13.24
2023-04-17T06:40:57.497Z,13.18
2023-04-17T06:43:25.493Z,13.12
2023-04-17T06:45:54.614Z,12.97
2023-04-17T06:48:22.587Z,12.96
2023-04-17T06:50:51.930Z,12.88
2023-04-17T06:53:20.134Z,12.88
2023-04-17T06:55:48.095Z,13.24
2023-04-17T06:58:16.029Z,12.95
2023-04-17T07:00:44.030Z,13.05
2023-04-17T07:03:13.933Z,13.29
2023-04-17T07:05:44.481Z,13.72
2023-04-17T07:08:15.957Z,13.69
2023-04-17T07:10:44.076Z,13.51
2023-04-17T07:13:12.171Z,13.78
2023-04-17T07:15:40.069Z,13.77
2023-04-17T07:18:08.074Z,13.63
2023-04-17T07:20:36.071Z,14.07
2023-04-17T07:23:04.003Z,14.14
2023-04-17T07:25:33.297Z,14.00
2023-04-17T07:28:02.122Z,14.30
2023-04-17T07:30:31.807Z,13.91
2023-04-17T07:32:59.964Z,13.92
2023-04-17T07:35:28.021Z,14.11
2023-04-17T07:37:59.056Z,13.85
2023-04-17T07:40:27.118Z,14.43
2023-04-17T07:42:56.881Z,14.52
2023-04-17T07:45:24.899Z,14.51
2023-04-17T07:47:53.149Z,14.98
2023-04-17T07:50:21.708Z,14.94
2023-04-17T07:52:49.725Z,15.28
2023-04-17T07:55:17.797Z,15.00
2023-04-17T07:57:46.973Z,15.18
2023-04-17T08:00:16.781Z,15.44
2023-04-17T08:02:44.926Z,15.75
2023-04-17T08:05:13.022Z,15.91
2023-04-17T08:07:41.200Z,15.16
2023-04-17T08:10:09.817Z,14.82
2023-04-17T08:12:37.825Z,15.47
2023-04-17T08:15:06.439Z,15.49
2023-04-17T08:17:35.810Z,15.57
2023-04-17T08:20:07.821Z,15.97
2023-04-17T08:22:40.168Z,16.18
2023-04-17T08:25:09.694Z,15.99
2023-04-17T08:27:37.838Z,16.04
2023-04-17T08:30:09.162Z,16.06
2023-04-17T08:32:40.944Z,16.54
2023-04-17T08:35:11.360Z,16.60
2023-04-17T08:37:39.635Z,16.56
2023-04-17T08:40:09.392Z,16.82
2023-04-17T08:42:38.679Z,16.76
2023-04-17T08:45:09.620Z,16.92
2023-04-17T08:47:38.100Z,16.56
2023-04-17T08:50:15.499Z,16.78
2023-04-17T08:52:44.610Z,16.91
2023-04-17T08:55:13.959Z,16.35
2023-04-17T08:57:58.630Z,17.15
2023-04-17T09:00:28.289Z,17.00
2023-04-17T09:02:57.688Z,18.39
2023-04-17T09:05:30.280Z,18.31
2023-04-17T09:08:09.997Z,17.35
2023-04-17T09:10:39.267Z,17.55
2023-04-17T09:13:08.497Z,17.12
2023-04-17T09:15:37.827Z,17.60
2023-04-17T09:18:05.846Z,18.86
2023-04-17T09:20:49.820Z,18.52
2023-04-17T09:23:17.760Z,18.42
2023-04-17T09:25:46.214Z,17.61
2023-04-17T09:28:16.085Z,17.87
2023-04-17T09:30:44.350Z,18.21
2023-04-17T09:33:13.008Z,18.09
2023-04-17T09:35:42.726Z,17.83
2023-04-17T09:38:11.783Z,17.41
2023-04-17T09:40:41.264Z,18.18
2023-04-17T09:43:10.991Z,18.59
2023-04-17T09:45:42.773Z,18.49
2023-04-17T09:48:14.442Z,19.01
2023-04-17T09:50:44.495Z,18.89
2023-04-17T09:53:13.876Z,19.14
2023-04-17T09:55:43.485Z,18.31
2023-04-17T09:58:12.293Z,18.23
2023-04-17T10:00:42.730Z,18.93
2023-04-17T10:03:11.400Z,18.58
2023-04-17T10:05:39.843Z,18.81
2023-04-17T10:08:09.261Z,18.58
2023-04-17T10:10:37.251Z,19.32
2023-04-17T10:13:09.225Z,18.69
2023-04-17T10:15:39.454Z,19.56
2023-04-17T10:18:28.305Z,18.75
2023-04-17T10:20:56.747Z,18.79
2023-04-17T10:23:31.435Z,19.20
2023-04-17T10:26:45.375Z,19.70
2023-04-17T10:29:13.717Z,19.72
2023-04-17T10:32:17.370Z,19.05
2023-04-17T10:34:45.342Z,19.03
2023-04-17T10:37:15.596Z,19.82
2023-04-17T10:40:01.792Z,19.56
2023-04-17T10:42:32.775Z,19.66
2023-04-17T10:45:05.922Z,19.66
2023-04-17T10:47:34.670Z,19.41
2023-04-17T10:50:04.554Z,18.87
2023-04-17T10:52:41.957Z,19.48
2023-04-17T10:55:14.486Z,19.86
2023-04-17T10:57:56.953Z,19.81
2023-04-17T11:00:36.835Z,20.52
2023-04-17T11:03:06.757Z,20.62
2023-04-17T11:05:36.591Z,20.02
2023-04-17T11:08:04.691Z,19.94
2023-04-17T11:10:36.514Z,19.84
2023-04-17T11:13:04.486Z,22.38
2023-04-17T11:15:34.173Z,22.37
2023-04-17T11:18:03.943Z,22.42
2023-04-17T11:20:34.053Z,22.07
2023-04-17T11:23:02.742Z,21.85
2023-04-17T11:25:33.589Z,22.88
2023-04-17T11:28:04.340Z,22.90
2023-04-17T11:30:34.136Z,22.54
2023-04-17T11:33:02.936Z,22.69
2023-04-17T11:35:33.522Z,22.79
2023-04-17T11:38:12.941Z,22.88
2023-04-17T11:40:45.566Z,21.97
2023-04-17T11:43:15.101Z,22.56
2023-04-17T11:45:44.264Z,22.55
2023-04-17T11:48:13.124Z,24.17
2023-04-17T11:50:42.648Z,24.74
2023-04-17T11:53:14.219Z,25.40
2023-04-17T11:55:42.136Z,26.40
2023-04-17T11:58:11.852Z,26.23
2023-04-17T12:00:42.979Z,26.40
2023-04-17T12:03:33.919Z,25.09
2023-04-17T12:06:02.491Z,26.25
2023-04-17T12:08:31.512Z,27.44
2023-04-17T12:10:59.607Z,27.64
2023-04-17T12:13:27.564Z,26.90
2023-04-17T12:15:56.973Z,27.23
2023-04-17T12:18:24.895Z,24.62
2023-04-17T12:20:52.732Z,24.55
2023-04-17T12:23:20.685Z,23.09
2023-04-17T12:25:48.628Z,23.14
2023-04-17T12:28:17.088Z,25.42
2023-04-17T12:30:44.982Z,25.61
2023-04-17T12:33:14.297Z,25.22
2023-04-17T12:35:42.142Z,25.60
2023-04-17T12:38:10.085Z,25.49
2023-04-17T12:40:39.136Z,25.69
2023-04-17T12:43:08.374Z,25.13
2023-04-17T12:45:37.176Z,24.82
2023-04-17T12:48:05.524Z,26.53
2023-04-17T12:50:40.517Z,26.27
2023-04-17T12:53:08.333Z,24.91
2023-04-17T12:55:38.569Z,25.76
2023-04-17T12:58:07.002Z,25.61
2023-04-17T13:00:35.351Z,23.04
2023-04-17T13:03:03.569Z,21.37
2023-04-17T13:05:32.144Z,21.36
2023-04-17T13:08:01.643Z,22.09
2023-04-17T13:10:29.878Z,22.83
2023-04-17T13:12:57.800Z,25.03
2023-04-17T13:15:26.303Z,24.81
2023-04-17T13:17:54.347Z,24.89
2023-04-17T13:20:22.425Z,26.29
2023-04-17T13:22:50.502Z,25.48
2023-04-17T13:25:19.937Z,25.37
2023-04-17T13:27:47.974Z,23.68
2023-04-17T13:30:16.183Z,22.33
2023-04-17T13:32:44.398Z,21.04
2023-04-17T13:35:13.447Z,20.42
2023-04-17T13:37:42.312Z,21.38
2023-04-17T13:40:11.833Z,20.34
2023-04-17T13:42:41.143Z,20.00
2023-04-17T13:45:09.828Z,20.45
2023-04-17T13:47:37.750Z,26.64
2023-04-17T13:50:07.146Z,26.75
2023-04-17T13:52:34.997Z,28.06
2023-04-17T13:55:02.859Z,27.17
2023-04-17T13:57:30.635Z,26.71
2023-04-17T13:59:59.802Z,29.93
2023-04-17T14:02:27.803Z,29.98
2023-04-17T14:04:55.973Z,28.93
2023-04-17T14:07:23.929Z,30.69
2023-04-17T14:09:51.959Z,31.60
2023-04-17T14:12:21.751Z,33.74
2023-04-17T14:14:49.640Z,32.11
2023-04-17T14:17:18.976Z,28.02
2023-04-17T14:19:47.087Z,25.14
2023-04-17T14:22:14.915Z,23.27
2023-04-17T14:24:43.211Z,23.72
2023-04-17T14:27:11.114Z,28.13
2023-04-17T14:29:39.037Z,30.78
2023-04-17T14:32:07.209Z,30.06
2023-04-17T14:34:36.438Z,26.32
2023-04-17T14:37:04.328Z,24.30
2023-04-17T14:39:32.910Z,23.01
2023-04-17T14:42:02.106Z,25.87
2023-04-17T14:44:30.305Z,28.67
2023-04-17T14:46:58.468Z,31.63
2023-04-17T14:49:26.399Z,29.05
2023-04-17T14:51:55.894Z,25.00
2023-04-17T14:54:23.768Z,23.46
2023-04-17T14:56:51.731Z,21.88
2023-04-17T14:59:19.751Z,21.92
2023-04-17T15:01:47.834Z,21.71
2023-04-17T15:04:16.424Z,22.61
2023-04-17T15:06:44.332Z,23.85
2023-04-17T15:09:13.736Z,26.24
2023-04-17T15:11:41.733Z,25.17
2023-04-17T15:14:09.604Z,25.49
2023-04-17T15:16:37.419Z,25.97
2023-04-17T15:19:05.319Z,23.34
2023-04-17T15:21:33.390Z,23.46
2023-04-17T15:24:01.193Z,23.20
2023-04-17T15:26:30.392Z,23.40
2023-04-17T15:28:58.151Z,22.45
2023-04-17T15:31:26.161Z,21.67
2023-04-17T15:33:54.001Z,21.35
2023-04-17T15:36:21.845Z,24.02
2023-04-17T15:38:49.786Z,24.47
2023-04-17T15:41:17.816Z,23.62
2023-04-17T15:43:47.073Z,23.68
2023-04-17T15:46:14.978Z,23.58
2023-04-17T15:48:42.827Z,23.96
2023-04-17T15:51:10.665Z,24.99
2023-04-17T15:53:38.431Z,23.85
2023-04-17T15:56:07.131Z,23.87
2023-04-17T15:58:35.857Z,22.55
2023-04-17T16:01:05.100Z,21.09
2023-04-17T16:03:33.133Z,20.61
2023-04-17T16:06:01.052Z,20.81
2023-04-17T16:08:28.848Z,21.38
2023-04-17T16:10:56.609Z,22.53
2023-04-17T16:13:24.440Z,22.34
2023-04-17T16:15:52.264Z,22.74
2023-04-17T16:18:21.650Z,23.24
2023-04-17T16:20:49.491Z,22.41
2023-04-17T16:23:17.933Z,21.29
2023-04-17T16:25:45.726Z,21.51
2023-04-17T16:28:13.496Z,21.18
2023-04-17T16:30:41.318Z,21.99
2023-04-17T16:33:09.265Z,21.92
2023-04-17T16:35:38.553Z,21.15
2023-04-17T16:38:06.406Z,21.93
2023-04-17T16:40:34.168Z,23.54
2023-04-17T16:43:02.012Z,23.81
2023-04-17T16:45:29.804Z,23.10
2023-04-17T16:47:57.742Z,22.95
2023-04-17T16:50:25.783Z,23.39
2023-04-17T16:52:55.039Z,23.43
2023-04-17T16:55:23.037Z,22.72
2023-04-17T16:57:50.837Z,24.10
2023-04-17T17:00:18.987Z,25.23
2023-04-17T17:02:46.921Z,24.31
2023-04-17T17:05:15.531Z,24.86
2023-04-17T17:07:43.447Z,24.87
2023-04-17T17:10:12.920Z,25.94
2023-04-17T17:12:40.801Z,26.82
2023-04-17T17:15:09.257Z,26.08
2023-04-17T17:17:37.887Z,26.32
2023-04-17T17:20:06.968Z,25.14
2023-04-17T17:22:34.752Z,24.49
2023-04-17T17:25:02.565Z,23.20
2023-04-17T17:27:31.702Z,22.73
2023-04-17T17:30:00.462Z,22.01
2023-04-17T17:32:28.768Z,22.58
2023-04-17T17:34:58.184Z,22.23
2023-04-17T17:37:27.426Z,21.77
2023-04-17T17:39:55.251Z,21.63
2023-04-17T17:42:23.083Z,21.52
2023-04-17T17:44:52.272Z,20.48
2023-04-17T17:47:20.061Z,21.10
2023-04-17T17:49:49.399Z,20.67
2023-04-17T17:52:17.266Z,20.43
2023-04-17T17:54:45.056Z,20.01
2023-04-17T17:57:12.890Z,19.41
2023-04-17T17:59:40.869Z,19.58
2023-04-17T18:02:10.342Z,18.90
2023-04-17T18:04:38.474Z,19.07
2023-04-17T18:07:08.136Z,19.17
2023-04-17T18:09:35.972Z,18.75
2023-04-17T18:12:03.961Z,18.42
2023-04-17T18:14:31.843Z,18.21
2023-04-17T18:16:59.686Z,18.46
2023-04-17T18:19:28.910Z,18.23
2023-04-17T18:21:56.752Z,18.36
2023-04-17T18:24:24.574Z,17.99
2023-04-17T18:26:52.472Z,17.78
2023-04-17T18:29:20.210Z,17.84
2023-04-17T18:31:48.131Z,17.68
2023-04-17T18:34:18.009Z,17.62
2023-04-17T18:36:47.206Z,17.64
2023-04-17T18:39:15.276Z,17.42
2023-04-17T18:41:43.067Z,17.26
2023-04-17T18:44:10.871Z,17.08
2023-04-17T18:46:38.768Z,16.95
2023-04-17T18:49:06.518Z,16.96
2023-04-17T18:51:34.269Z,16.75
2023-04-17T18:54:03.327Z,16.36
2023-04-17T18:56:31.086Z,16.45
2023-04-17T18:58:58.890Z,16.55
2023-04-17T19:01:26.643Z,16.48
2023-04-17T19:03:54.402Z,16.07
2023-04-17T19:06:22.274Z,16.37
2023-04-17T19:08:50.213Z,16.27
2023-04-17T19:11:19.585Z,16.24
2023-04-17T19:13:47.604Z,16.21
2023-04-17T19:16:15.451Z,16.23
2023-04-17T19:18:43.332Z,16.41
2023-04-17T19:21:11.221Z,16.05
2023-04-17T19:23:39.131Z,15.83
2023-04-17T19:26:07.031Z,15.68
2023-04-17T19:28:36.667Z,15.58
2023-04-17T19:31:04.626Z,15.65
2023-04-17T19:33:34.095Z,15.86
2023-04-17T19:36:03.398Z,15.58
2023-04-17T19:38:31.530Z,15.67
2023-04-17T19:41:14.427Z,15.47
2023-04-17T19:43:43.811Z,15.13
2023-04-17T19:46:11.881Z,15.19
2023-04-17T19:48:40.257Z,15.27
2023-04-17T19:51:08.165Z,15.38
2023-04-17T19:53:37.217Z,15.23
2023-04-17T19:56:08.300Z,15.13
2023-04-17T19:58:36.880Z,15.22
2023-04-17T20:01:06.494Z,14.96
2023-04-17T20:03:35.608Z,15.23
2023-04-17T20:06:03.649Z,14.92
2023-04-17T20:08:31.584Z,14.96
2023-04-17T20:10:59.479Z,15.02
2023-04-17T20:13:28.641Z,14.80
2023-04-17T20:15:56.618Z,14.85
2023-04-17T20:18:26.023Z,14.74
2023-04-17T20:20:53.871Z,14.87
2023-04-17T20:23:21.748Z,14.87
2023-04-17T20:25:50.442Z,14.81
2023-04-17T20:28:18.249Z,14.83
2023-04-17T20:30:46.117Z,14.74
2023-04-17T20:33:14.092Z,14.42
2023-04-17T20:35:43.394Z,14.47
2023-04-17T20:38:11.192Z,14.60
2023-04-17T20:40:39.350Z,14.39
2023-04-17T20:43:07.110Z,14.47
2023-04-17T20:45:34.904Z,14.35
2023-04-17T20:48:02.867Z,14.27
2023-04-17T20:50:30.702Z,14.35
2023-04-17T20:52:59.836Z,14.41
2023-04-17T20:55:27.780Z,14.26
2023-04-17T20:57:55.592Z,14.28
2023-04-17T21:00:23.460Z,14.20
2023-04-17T21:02:51.406Z,14.09
2023-04-17T21:05:19.840Z,13.82
2023-04-17T21:07:49.498Z,13.84
2023-04-17T21:10:20.885Z,13.72
2023-04-17T21:12:48.721Z,13.48
2023-04-17T21:15:16.644Z,13.61
2023-04-17T21:17:47.545Z,13.60
2023-04-17T21:20:15.530Z,13.54
2023-04-17T21:22:43.247Z,13.54
2023-04-17T21:25:11.298Z,13.48
2023-04-17T21:27:40.926Z,13.33
2023-04-17T21:30:19.594Z,12.90
2023-04-17T21:32:48.394Z,13.30
2023-04-17T21:35:16.241Z,13.18
2023-04-17T21:37:44.054Z,13.20
2023-04-17T21:40:12.805Z,12.90
2023-04-17T21:42:42.531Z,13.11
2023-04-17T21:45:11.941Z,13.12
2023-04-17T21:47:39.772Z,12.89
2023-04-17T21:50:09.440Z,12.78
2023-04-17T21:52:37.412Z,12.52
2023-04-17T21:55:07.668Z,12.72
2023-04-17T21:57:36.026Z,12.75
2023-04-17T22:00:06.288Z,12.50
2023-04-17T22:02:34.508Z,12.71
2023-04-17T22:05:02.309Z,12.44
2023-04-17T22:07:30.710Z,12.31
2023-04-17T22:10:01.677Z,12.55
2023-04-17T22:12:29.516Z,12.61
2023-04-17T22:14:57.269Z,12.40
2023-04-17T22:17:26.512Z,12.50
2023-04-17T22:19:55.787Z,12.27
2023-04-17T22:22:23.686Z,12.42
2023-04-17T22:24:51.526Z,12.44
2023-04-17T22:27:19.281Z,12.38
2023-04-17T22:29:47.072Z,12.26
2023-04-17T22:32:14.881Z,12.22
2023-04-17T22:34:48.448Z,11.89
2023-04-17T22:37:16.370Z,12.10
2023-04-17T22:39:44.149Z,11.99
2023-04-17T22:42:11.972Z,11.98
2023-04-17T22:44:39.816Z,11.67
2023-04-17T22:47:07.589Z,11.95
2023-04-17T22:49:38.024Z,11.46
2023-04-17T22:52:07.896Z,11.82
2023-04-17T22:54:35.765Z,11.80
2023-04-17T22:57:03.530Z,11.60
2023-04-17T22:59:31.298Z,11.50
2023-04-17T23:01:59.227Z,11.31
2023-04-17T23:04:27.097Z,11.62
2023-04-17T23:06:54.913Z,11.57
2023-04-17T23:09:24.038Z,11.37
2023-04-17T23:11:51.817Z,11.11
2023-04-17T23:14:19.594Z,11.17
2023-04-17T23:16:47.458Z,11.45
2023-04-17T23:19:15.256Z,11.17
2023-04-17T23:21:43.030Z,10.92
2023-04-17T23:24:11.640Z,11.20
2023-04-17T23:26:41.825Z,11.18
2023-04-17T23:29:09.661Z,10.89
2023-04-17T23:31:37.818Z,10.63
2023-04-17T23:34:05.714Z,10.41
2023-04-17T23:36:33.555Z,10.63
2023-04-17T23:39:01.305Z,10.87
2023-04-17T23:41:29.645Z,10.81
2023-04-17T23:43:58.770Z,10.89
2023-04-17T23:46:26.829Z,10.85
2023-04-17T23:48:54.641Z,11.03
2023-04-17T23:51:22.404Z,10.41
2023-04-17T23:53:50.648Z,10.28
2023-04-17T23:56:22.046Z,10.69
2023-04-17T23:58:49.862Z,10.58
